createdAt,value
2024-01-26T00:01:22.364Z,6.40
2024-01-26T00:14:22.433Z,6.10
2024-01-26T00:27:22.494Z,6.00
2024-01-26T00:40:22.336Z,5.65
2024-01-26T00:53:22.322Z,5.80
2024-01-26T01:06:22.297Z,5.60
2024-01-26T01:19:22.592Z,5.40
2024-01-26T01:32:22.261Z,5.10
2024-01-26T01:45:22.387Z,4.90
2024-01-26T01:58:22.445Z,4.95
2024-01-26T02:11:23.240Z,4.60
2024-01-26T02:24:22.292Z,4.40
2024-01-26T02:37:22.496Z,4.20
2024-01-26T02:50:22.319Z,4.10
2024-01-26T03:03:22.323Z,3.50
2024-01-26T03:16:22.318Z,3.50
2024-01-26T03:29:22.300Z,3.80
2024-01-26T03:42:22.318Z,3.70
2024-01-26T03:55:22.330Z,3.50
2024-01-26T04:08:22.349Z,3.20
2024-01-26T04:21:22.379Z,2.90
2024-01-26T04:34:22.507Z,2.90
2024-01-26T04:47:22.425Z,2.90
2024-01-26T05:00:22.463Z,2.90
2024-01-26T05:13:22.374Z,2.60
2024-01-26T05:26:22.348Z,2.80
2024-01-26T05:39:22.402Z,2.70
2024-01-26T05:52:22.353Z,2.50
2024-01-26T06:05:22.434Z,2.70
2024-01-26T06:18:22.484Z,3.30
2024-01-26T06:31:22.414Z,2.90
2024-01-26T06:45:22.396Z,3.30
2024-01-26T06:59:22.433Z,3.10
2024-01-26T07:13:22.459Z,3.30
2024-01-26T07:27:22.382Z,3.50
2024-01-26T07:41:22.394Z,3.60
2024-01-26T07:55:22.384Z,3.80
2024-01-26T08:09:22.436Z,4.00
2024-01-26T08:23:22.420Z,4.20
2024-01-26T08:37:22.416Z,4.40
2024-01-26T08:51:22.422Z,4.40
2024-01-26T09:05:22.529Z,4.70
2024-01-26T09:19:22.529Z,5.95
2024-01-26T09:33:22.617Z,5.80
2024-01-26T09:47:22.476Z,5.80
2024-01-26T10:01:22.600Z,5.70
2024-01-26T10:15:22.698Z,6.00
2024-01-26T10:29:22.449Z,5.90
2024-01-26T10:43:22.463Z,6.95
2024-01-26T10:57:22.521Z,6.50
2024-01-26T11:11:22.476Z,6.25
2024-01-26T11:25:22.463Z,5.50
2024-01-26T11:39:22.500Z,5.55
2024-01-26T11:53:22.490Z,6.20
2024-01-26T12:07:22.603Z,6.30
2024-01-26T12:21:22.563Z,6.10
2024-01-26T12:35:25.086Z,6.10
2024-01-26T12:49:22.615Z,7.00
2024-01-26T13:03:22.676Z,10.30
2024-01-26T13:16:23.710Z,12.60
2024-01-26T13:30:24.795Z,12.30
2024-01-26T13:44:23.562Z,12.20
2024-01-26T13:58:23.635Z,11.00
2024-01-26T14:12:23.708Z,11.20
2024-01-26T14:26:23.625Z,10.60
2024-01-26T14:40:23.607Z,10.00
2024-01-26T14:54:23.679Z,9.50
2024-01-26T15:08:23.650Z,8.60
2024-01-26T15:22:23.622Z,8.80
2024-01-26T15:36:23.818Z,8.70
2024-01-26T15:50:23.695Z,9.10
2024-01-26T16:04:23.759Z,8.60
2024-01-26T16:18:23.843Z,7.60
2024-01-26T16:32:23.712Z,8.00
2024-01-26T16:46:23.697Z,7.50
2024-01-26T16:59:23.673Z,7.50
2024-01-26T17:12:23.953Z,7.50
2024-01-26T17:25:23.765Z,8.00
2024-01-26T17:38:23.778Z,7.90
2024-01-26T17:51:23.956Z,8.25
2024-01-26T18:05:23.853Z,8.70
2024-01-26T18:18:23.914Z,9.10
2024-01-26T18:31:23.839Z,9.70
2024-01-26T18:44:23.837Z,9.90
2024-01-26T18:57:23.871Z,10.40
2024-01-26T19:10:23.901Z,10.30
2024-01-26T19:23:23.883Z,10.60
2024-01-26T19:36:23.913Z,9.90
2024-01-26T19:49:23.986Z,9.80
2024-01-26T20:02:23.873Z,9.80
2024-01-26T20:15:23.953Z,11.40
2024-01-26T20:28:23.901Z,11.10
2024-01-26T20:41:23.911Z,10.30
2024-01-26T20:54:23.954Z,10.20
2024-01-26T21:07:23.916Z,10.10
2024-01-26T21:20:23.926Z,9.60
2024-01-26T21:33:24.014Z,9.50
2024-01-26T21:46:23.996Z,9.10
2024-01-26T21:59:23.968Z,9.00
2024-01-26T22:12:24.018Z,8.60
2024-01-26T22:25:26.243Z,8.40
2024-01-26T22:38:24.007Z,8.35
2024-01-26T22:51:24.077Z,7.80
2024-01-26T23:04:24.020Z,7.40
2024-01-26T23:17:24.072Z,6.90
2024-01-26T23:30:24.141Z,7.20
2024-01-26T23:43:24.089Z,6.90
2024-01-26T23:56:24.099Z,6.60
